sensor_id;sensor_type;location;lat;lon;timestamp;temperature;humidity
57833;DHT22;43667;53.036;6.740;2022-07-12T00:01:04;16.20;99.90
57833;DHT22;43667;53.036;6.740;2022-07-12T00:03:30;16.20;99.90
57833;DHT22;43667;53.036;6.740;2022-07-12T00:05:56;16.20;99.90
57833;DHT22;43667;53.036;6.740;2022-07-12T00:08:21;16.20;99.90
57833;DHT22;43667;53.036;6.740;2022-07-12T00:10:47;16.10;99.90
57833;DHT22;43667;53.036;6.740;2022-07-12T00:13:12;16.10;99.90
57833;DHT22;43667;53.036;6.740;2022-07-12T00:15:38;16.10;99.90
57833;DHT22;43667;53.036;6.740;2022-07-12T00:18:04;16.10;99.90
57833;DHT22;43667;53.036;6.740;2022-07-12T00:20:29;16.10;99.90
57833;DHT22;43667;53.036;6.740;2022-07-12T00:22:55;16.10;99.90
57833;DHT22;43667;53.036;6.740;2022-07-12T00:25:20;16.10;99.90
57833;DHT22;43667;53.036;6.740;2022-07-12T00:27:46;16.10;99.90
57833;DHT22;43667;53.036;6.740;2022-07-12T00:30:11;16.00;99.90
57833;DHT22;43667;53.036;6.740;2022-07-12T00:32:37;16.00;99.90
57833;DHT22;43667;53.036;6.740;2022-07-12T00:35:03;16.00;99.90
57833;DHT22;43667;53.036;6.740;2022-07-12T00:37:28;15.90;99.90
57833;DHT22;43667;53.036;6.740;2022-07-12T00:39:55;15.90;99.90
57833;DHT22;43667;53.036;6.740;2022-07-12T00:42:20;16.00;99.90
57833;DHT22;43667;53.036;6.740;2022-07-12T00:44:46;16.00;99.90
57833;DHT22;43667;53.036;6.740;2022-07-12T00:47:45;16.00;99.90
57833;DHT22;43667;53.036;6.740;2022-07-12T00:50:09;15.90;99.90
57833;DHT22;43667;53.036;6.740;2022-07-12T00:52:36;16.00;99.90
57833;DHT22;43667;53.036;6.740;2022-07-12T00:55:02;15.90;99.90
57833;DHT22;43667;53.036;6.740;2022-07-12T00:57:28;15.90;99.90
57833;DHT22;43667;53.036;6.740;2022-07-12T00:59:54;15.90;99.90
57833;DHT22;43667;53.036;6.740;2022-07-12T01:02:19;15.90;99.90
57833;DHT22;43667;53.036;6.740;2022-07-12T01:04:44;15.80;99.90
57833;DHT22;43667;53.036;6.740;2022-07-12T01:07:11;15.90;99.90
57833;DHT22;43667;53.036;6.740;2022-07-12T01:09:37;15.80;99.90
57833;DHT22;43667;53.036;6.740;2022-07-12T01:12:04;15.80;99.90
57833;DHT22;43667;53.036;6.740;2022-07-12T01:14:29;15.80;99.90
57833;DHT22;43667;53.036;6.740;2022-07-12T01:16:55;15.80;99.90
57833;DHT22;43667;53.036;6.740;2022-07-12T01:19:21;15.80;99.90
57833;DHT22;43667;53.036;6.740;2022-07-12T01:21:48;15.80;99.90
57833;DHT22;43667;53.036;6.740;2022-07-12T01:24:14;15.70;99.90
57833;DHT22;43667;53.036;6.740;2022-07-12T01:26:40;15.80;99.90
57833;DHT22;43667;53.036;6.740;2022-07-12T01:29:06;15.80;99.90
57833;DHT22;43667;53.036;6.740;2022-07-12T01:31:33;15.70;99.90
57833;DHT22;43667;53.036;6.740;2022-07-12T01:33:59;15.70;99.90
57833;DHT22;43667;53.036;6.740;2022-07-12T01:36:24;15.70;99.90
57833;DHT22;43667;53.036;6.740;2022-07-12T01:38:50;15.80;99.90
57833;DHT22;43667;53.036;6.740;2022-07-12T01:41:16;15.70;99.90
57833;DHT22;43667;53.036;6.740;2022-07-12T01:43:41;15.70;99.90
57833;DHT22;43667;53.036;6.740;2022-07-12T01:46:07;15.70;99.90
57833;DHT22;43667;53.036;6.740;2022-07-12T01:48:32;15.70;99.90
57833;DHT22;43667;53.036;6.740;2022-07-12T01:50:58;15.70;99.90
57833;DHT22;43667;53.036;6.740;2022-07-12T01:53:23;15.70;99.90
57833;DHT22;43667;53.036;6.740;2022-07-12T01:55:49;15.70;99.90
57833;DHT22;43667;53.036;6.740;2022-07-12T01:58:14;15.70;99.90
57833;DHT22;43667;53.036;6.740;2022-07-12T02:00:40;15.60;99.90
57833;DHT22;43667;53.036;6.740;2022-07-12T02:03:06;15.60;99.90
57833;DHT22;43667;53.036;6.740;2022-07-12T02:05:31;15.60;99.90
57833;DHT22;43667;53.036;6.740;2022-07-12T02:07:57;15.60;99.90
57833;DHT22;43667;53.036;6.740;2022-07-12T02:10:22;15.60;99.90
57833;DHT22;43667;53.036;6.740;2022-07-12T02:12:48;15.60;99.90
57833;DHT22;43667;53.036;6.740;2022-07-12T02:15:13;15.60;99.90
57833;DHT22;43667;53.036;6.740;2022-07-12T02:17:39;15.60;99.90
57833;DHT22;43667;53.036;6.740;2022-07-12T02:20:05;15.60;99.90
57833;DHT22;43667;53.036;6.740;2022-07-12T02:22:30;15.60;99.90
57833;DHT22;43667;53.036;6.740;2022-07-12T02:24:56;15.60;99.90
57833;DHT22;43667;53.036;6.740;2022-07-12T02:27:21;15.50;99.90
57833;DHT22;43667;53.036;6.740;2022-07-12T02:29:47;15.50;99.90
57833;DHT22;43667;53.036;6.740;2022-07-12T02:32:12;15.50;99.90
57833;DHT22;43667;53.036;6.740;2022-07-12T02:34:39;15.50;99.90
57833;DHT22;43667;53.036;6.740;2022-07-12T02:37:04;15.50;99.90
57833;DHT22;43667;53.036;6.740;2022-07-12T02:39:30;15.40;99.90
57833;DHT22;43667;53.036;6.740;2022-07-12T02:41:55;15.40;99.90
57833;DHT22;43667;53.036;6.740;2022-07-12T02:44:21;15.40;99.90
57833;DHT22;43667;53.036;6.740;2022-07-12T02:46:46;15.40;99.90
57833;DHT22;43667;53.036;6.740;2022-07-12T02:49:15;15.40;99.90
57833;DHT22;43667;53.036;6.740;2022-07-12T02:51:41;15.40;99.90
57833;DHT22;43667;53.036;6.740;2022-07-12T02:54:06;15.30;99.90
57833;DHT22;43667;53.036;6.740;2022-07-12T02:56:32;15.30;99.90
57833;DHT22;43667;53.036;6.740;2022-07-12T02:58:57;15.30;99.90
57833;DHT22;43667;53.036;6.740;2022-07-12T03:01:23;15.20;99.90
57833;DHT22;43667;53.036;6.740;2022-07-12T03:03:48;15.20;99.90
57833;DHT22;43667;53.036;6.740;2022-07-12T03:06:14;15.20;99.90
57833;DHT22;43667;53.036;6.740;2022-07-12T03:08:40;15.10;99.90
57833;DHT22;43667;53.036;6.740;2022-07-12T03:11:05;15.10;99.90
57833;DHT22;43667;53.036;6.740;2022-07-12T03:13:31;15.00;99.90
57833;DHT22;43667;53.036;6.740;2022-07-12T03:15:56;15.00;99.90
57833;DHT22;43667;53.036;6.740;2022-07-12T03:18:22;14.90;99.90
57833;DHT22;43667;53.036;6.740;2022-07-12T03:20:47;14.80;99.90
57833;DHT22;43667;53.036;6.740;2022-07-12T03:23:14;14.80;99.90
57833;DHT22;43667;53.036;6.740;2022-07-12T03:25:39;14.70;99.90
57833;DHT22;43667;53.036;6.740;2022-07-12T03:28:05;14.70;99.90
57833;DHT22;43667;53.036;6.740;2022-07-12T03:30:30;14.60;99.90
57833;DHT22;43667;53.036;6.740;2022-07-12T03:32:56;14.60;99.90
57833;DHT22;43667;53.036;6.740;2022-07-12T03:35:21;14.50;99.90
57833;DHT22;43667;53.036;6.740;2022-07-12T03:37:47;14.50;99.90
57833;DHT22;43667;53.036;6.740;2022-07-12T03:40:14;14.40;99.90
57833;DHT22;43667;53.036;6.740;2022-07-12T03:42:39;14.40;99.90
57833;DHT22;43667;53.036;6.740;2022-07-12T03:45:05;14.30;99.90
57833;DHT22;43667;53.036;6.740;2022-07-12T03:47:32;14.30;99.90
57833;DHT22;43667;53.036;6.740;2022-07-12T03:49:57;14.20;99.90
57833;DHT22;43667;53.036;6.740;2022-07-12T03:52:23;14.20;99.90
57833;DHT22;43667;53.036;6.740;2022-07-12T03:54:49;14.20;99.90
57833;DHT22;43667;53.036;6.740;2022-07-12T03:57:14;14.20;99.90
57833;DHT22;43667;53.036;6.740;2022-07-12T03:59:44;14.20;99.90
57833;DHT22;43667;53.036;6.740;2022-07-12T04:02:09;14.10;99.90
57833;DHT22;43667;53.036;6.740;2022-07-12T04:04:35;14.20;99.90
57833;DHT22;43667;53.036;6.740;2022-07-12T04:07:01;14.10;99.90
57833;DHT22;43667;53.036;6.740;2022-07-12T04:09:27;14.10;99.90
57833;DHT22;43667;53.036;6.740;2022-07-12T04:11:52;14.10;99.90
57833;DHT22;43667;53.036;6.740;2022-07-12T04:14:18;14.10;99.90
57833;DHT22;43667;53.036;6.740;2022-07-12T04:16:43;14.00;99.90
57833;DHT22;43667;53.036;6.740;2022-07-12T04:19:09;14.10;99.90
57833;DHT22;43667;53.036;6.740;2022-07-12T04:21:35;14.00;99.90
57833;DHT22;43667;53.036;6.740;2022-07-12T04:24:01;14.10;99.90
57833;DHT22;43667;53.036;6.740;2022-07-12T04:26:26;14.10;99.90
57833;DHT22;43667;53.036;6.740;2022-07-12T04:28:52;14.10;99.90
57833;DHT22;43667;53.036;6.740;2022-07-12T04:31:18;14.00;99.90
57833;DHT22;43667;53.036;6.740;2022-07-12T04:33:43;14.00;99.90
57833;DHT22;43667;53.036;6.740;2022-07-12T04:36:09;14.10;99.90
57833;DHT22;43667;53.036;6.740;2022-07-12T04:38:34;14.10;99.90
57833;DHT22;43667;53.036;6.740;2022-07-12T04:41:00;14.10;99.90
57833;DHT22;43667;53.036;6.740;2022-07-12T04:43:25;14.10;99.90
57833;DHT22;43667;53.036;6.740;2022-07-12T04:45:51;14.10;99.90
57833;DHT22;43667;53.036;6.740;2022-07-12T04:48:16;14.10;99.90
57833;DHT22;43667;53.036;6.740;2022-07-12T04:50:42;14.20;99.90
57833;DHT22;43667;53.036;6.740;2022-07-12T04:53:07;14.20;99.90
57833;DHT22;43667;53.036;6.740;2022-07-12T04:55:33;14.20;99.90
57833;DHT22;43667;53.036;6.740;2022-07-12T04:57:59;14.20;99.90
57833;DHT22;43667;53.036;6.740;2022-07-12T05:00:24;14.30;99.90
57833;DHT22;43667;53.036;6.740;2022-07-12T05:02:50;14.20;99.90
57833;DHT22;43667;53.036;6.740;2022-07-12T05:05:15;14.40;99.90
57833;DHT22;43667;53.036;6.740;2022-07-12T05:07:41;14.40;99.90
57833;DHT22;43667;53.036;6.740;2022-07-12T05:10:07;14.50;99.90
57833;DHT22;43667;53.036;6.740;2022-07-12T05:12:36;14.60;99.90
57833;DHT22;43667;53.036;6.740;2022-07-12T05:15:02;14.60;99.90
57833;DHT22;43667;53.036;6.740;2022-07-12T05:17:27;14.70;99.90
57833;DHT22;43667;53.036;6.740;2022-07-12T05:19:53;14.70;99.90
57833;DHT22;43667;53.036;6.740;2022-07-12T05:22:18;14.80;99.90
57833;DHT22;43667;53.036;6.740;2022-07-12T05:24:44;14.80;99.90
57833;DHT22;43667;53.036;6.740;2022-07-12T05:27:09;14.80;99.90
57833;DHT22;43667;53.036;6.740;2022-07-12T05:29:35;14.80;99.90
57833;DHT22;43667;53.036;6.740;2022-07-12T05:32:00;14.90;99.90
57833;DHT22;43667;53.036;6.740;2022-07-12T05:34:27;14.90;99.90
57833;DHT22;43667;53.036;6.740;2022-07-12T05:36:52;14.90;99.90
57833;DHT22;43667;53.036;6.740;2022-07-12T05:39:18;15.00;99.90
57833;DHT22;43667;53.036;6.740;2022-07-12T05:41:43;15.10;99.90
57833;DHT22;43667;53.036;6.740;2022-07-12T05:44:09;15.20;99.90
57833;DHT22;43667;53.036;6.740;2022-07-12T05:46:34;15.40;99.90
57833;DHT22;43667;53.036;6.740;2022-07-12T05:49:02;15.50;99.90
57833;DHT22;43667;53.036;6.740;2022-07-12T05:51:27;15.70;99.90
57833;DHT22;43667;53.036;6.740;2022-07-12T05:54:11;15.80;99.90
57833;DHT22;43667;53.036;6.740;2022-07-12T05:56:37;15.90;99.90
57833;DHT22;43667;53.036;6.740;2022-07-12T05:59:02;16.00;99.90
57833;DHT22;43667;53.036;6.740;2022-07-12T06:01:28;16.10;99.90
57833;DHT22;43667;53.036;6.740;2022-07-12T06:03:54;16.20;99.90
57833;DHT22;43667;53.036;6.740;2022-07-12T06:06:19;16.30;99.90
57833;DHT22;43667;53.036;6.740;2022-07-12T06:08:45;16.40;99.90
57833;DHT22;43667;53.036;6.740;2022-07-12T06:11:10;16.60;99.90
57833;DHT22;43667;53.036;6.740;2022-07-12T06:13:36;16.60;99.90
57833;DHT22;43667;53.036;6.740;2022-07-12T06:16:02;16.70;99.90
57833;DHT22;43667;53.036;6.740;2022-07-12T06:18:31;16.80;99.90
57833;DHT22;43667;53.036;6.740;2022-07-12T06:20:57;16.90;99.90
57833;DHT22;43667;53.036;6.740;2022-07-12T06:23:22;17.00;99.90
57833;DHT22;43667;53.036;6.740;2022-07-12T06:25:48;17.10;99.90
57833;DHT22;43667;53.036;6.740;2022-07-12T06:28:13;17.20;99.90
57833;DHT22;43667;53.036;6.740;2022-07-12T06:30:39;17.30;99.90
57833;DHT22;43667;53.036;6.740;2022-07-12T06:33:04;17.40;99.90
57833;DHT22;43667;53.036;6.740;2022-07-12T06:35:30;17.50;99.90
57833;DHT22;43667;53.036;6.740;2022-07-12T06:37:55;17.50;99.90
57833;DHT22;43667;53.036;6.740;2022-07-12T06:40:21;17.60;99.90
57833;DHT22;43667;53.036;6.740;2022-07-12T06:42:47;17.80;99.90
57833;DHT22;43667;53.036;6.740;2022-07-12T06:45:13;17.80;99.90
57833;DHT22;43667;53.036;6.740;2022-07-12T06:47:39;17.90;99.90
57833;DHT22;43667;53.036;6.740;2022-07-12T06:50:04;18.00;99.90
57833;DHT22;43667;53.036;6.740;2022-07-12T06:52:30;18.10;99.90
57833;DHT22;43667;53.036;6.740;2022-07-12T06:54:56;18.10;99.90
57833;DHT22;43667;53.036;6.740;2022-07-12T06:57:21;18.10;99.90
57833;DHT22;43667;53.036;6.740;2022-07-12T06:59:47;18.20;99.90
57833;DHT22;43667;53.036;6.740;2022-07-12T07:02:13;18.30;99.90
57833;DHT22;43667;53.036;6.740;2022-07-12T07:04:39;18.50;99.90
57833;DHT22;43667;53.036;6.740;2022-07-12T07:07:04;18.60;99.90
57833;DHT22;43667;53.036;6.740;2022-07-12T07:09:30;18.60;99.90
57833;DHT22;43667;53.036;6.740;2022-07-12T07:11:56;18.80;99.90
57833;DHT22;43667;53.036;6.740;2022-07-12T07:14:21;18.80;99.90
57833;DHT22;43667;53.036;6.740;2022-07-12T07:16:47;18.90;99.90
57833;DHT22;43667;53.036;6.740;2022-07-12T07:19:12;19.00;99.90
57833;DHT22;43667;53.036;6.740;2022-07-12T07:21:38;19.10;99.90
57833;DHT22;43667;53.036;6.740;2022-07-12T07:24:03;19.30;99.90
57833;DHT22;43667;53.036;6.740;2022-07-12T07:26:29;19.40;99.90
57833;DHT22;43667;53.036;6.740;2022-07-12T07:28:58;19.50;99.90
57833;DHT22;43667;53.036;6.740;2022-07-12T07:31:42;19.60;99.90
57833;DHT22;43667;53.036;6.740;2022-07-12T07:34:08;19.60;99.90
57833;DHT22;43667;53.036;6.740;2022-07-12T07:36:33;19.70;99.90
57833;DHT22;43667;53.036;6.740;2022-07-12T07:38:59;19.70;99.90
57833;DHT22;43667;53.036;6.740;2022-07-12T07:41:24;20.10;99.90
57833;DHT22;43667;53.036;6.740;2022-07-12T07:43:50;20.30;99.90
57833;DHT22;43667;53.036;6.740;2022-07-12T07:46:16;20.50;99.90
57833;DHT22;43667;53.036;6.740;2022-07-12T07:48:41;20.80;99.90
57833;DHT22;43667;53.036;6.740;2022-07-12T07:51:07;20.90;99.90
57833;DHT22;43667;53.036;6.740;2022-07-12T07:53:32;21.10;99.90
57833;DHT22;43667;53.036;6.740;2022-07-12T07:55:58;21.40;99.90
57833;DHT22;43667;53.036;6.740;2022-07-12T07:58:24;21.60;99.90
57833;DHT22;43667;53.036;6.740;2022-07-12T08:00:50;21.80;99.90
57833;DHT22;43667;53.036;6.740;2022-07-12T08:03:16;22.00;99.90
57833;DHT22;43667;53.036;6.740;2022-07-12T08:05:41;22.10;99.90
57833;DHT22;43667;53.036;6.740;2022-07-12T08:08:07;22.30;99.90
57833;DHT22;43667;53.036;6.740;2022-07-12T08:10:33;22.60;99.90
57833;DHT22;43667;53.036;6.740;2022-07-12T08:12:59;22.80;99.90
57833;DHT22;43667;53.036;6.740;2022-07-12T08:15:25;23.00;99.90
57833;DHT22;43667;53.036;6.740;2022-07-12T08:17:51;23.20;99.90
57833;DHT22;43667;53.036;6.740;2022-07-12T08:20:17;23.40;99.90
57833;DHT22;43667;53.036;6.740;2022-07-12T08:22:43;23.50;99.90
57833;DHT22;43667;53.036;6.740;2022-07-12T08:25:09;23.50;99.90
57833;DHT22;43667;53.036;6.740;2022-07-12T08:27:34;23.70;99.90
57833;DHT22;43667;53.036;6.740;2022-07-12T08:30:00;23.90;99.90
57833;DHT22;43667;53.036;6.740;2022-07-12T08:32:27;24.10;99.90
57833;DHT22;43667;53.036;6.740;2022-07-12T08:34:54;24.30;99.90
57833;DHT22;43667;53.036;6.740;2022-07-12T08:37:19;24.40;99.90
57833;DHT22;43667;53.036;6.740;2022-07-12T08:39:45;24.50;99.90
57833;DHT22;43667;53.036;6.740;2022-07-12T08:42:12;24.50;99.90
57833;DHT22;43667;53.036;6.740;2022-07-12T08:44:39;24.50;99.90
57833;DHT22;43667;53.036;6.740;2022-07-12T08:47:07;24.40;99.90
57833;DHT22;43667;53.036;6.740;2022-07-12T08:49:32;24.50;99.90
57833;DHT22;43667;53.036;6.740;2022-07-12T08:51:58;24.50;99.90
57833;DHT22;43667;53.036;6.740;2022-07-12T08:54:23;24.50;99.90
57833;DHT22;43667;53.036;6.740;2022-07-12T08:56:49;24.60;99.90
57833;DHT22;43667;53.036;6.740;2022-07-12T08:59:16;24.60;99.90
57833;DHT22;43667;53.036;6.740;2022-07-12T09:06:36;24.60;99.90
57833;DHT22;43667;53.036;6.740;2022-07-12T09:09:02;24.60;99.90
57833;DHT22;43667;53.036;6.740;2022-07-12T09:11:27;24.70;99.90
57833;DHT22;43667;53.036;6.740;2022-07-12T09:13:53;24.60;99.90
57833;DHT22;43667;53.036;6.740;2022-07-12T09:16:20;24.70;99.90
57833;DHT22;43667;53.036;6.740;2022-07-12T09:18:46;24.60;99.90
57833;DHT22;43667;53.036;6.740;2022-07-12T09:21:27;24.70;99.50
57833;DHT22;43667;53.036;6.740;2022-07-12T09:23:54;24.80;99.90
57833;DHT22;43667;53.036;6.740;2022-07-12T09:26:20;24.80;99.60
57833;DHT22;43667;53.036;6.740;2022-07-12T09:28:48;24.90;99.90
57833;DHT22;43667;53.036;6.740;2022-07-12T09:31:14;25.00;99.90
57833;DHT22;43667;53.036;6.740;2022-07-12T09:33:39;25.00;99.90
57833;DHT22;43667;53.036;6.740;2022-07-12T09:36:24;25.20;99.90
57833;DHT22;43667;53.036;6.740;2022-07-12T09:41:16;25.50;96.40
57833;DHT22;43667;53.036;6.740;2022-07-12T09:43:41;25.60;98.50
57833;DHT22;43667;53.036;6.740;2022-07-12T09:46:07;25.80;99.00
57833;DHT22;43667;53.036;6.740;2022-07-12T09:48:33;25.80;97.60
57833;DHT22;43667;53.036;6.740;2022-07-12T09:50:58;25.80;97.20
57833;DHT22;43667;53.036;6.740;2022-07-12T09:53:30;25.70;97.10
57833;DHT22;43667;53.036;6.740;2022-07-12T09:56:03;25.80;98.40
57833;DHT22;43667;53.036;6.740;2022-07-12T09:58:34;26.00;99.50
57833;DHT22;43667;53.036;6.740;2022-07-12T10:01:01;26.20;96.90
57833;DHT22;43667;53.036;6.740;2022-07-12T10:03:28;26.30;93.50
57833;DHT22;43667;53.036;6.740;2022-07-12T10:05:54;26.30;95.70
57833;DHT22;43667;53.036;6.740;2022-07-12T10:08:20;26.30;94.50
57833;DHT22;43667;53.036;6.740;2022-07-12T10:10:47;26.30;94.10
57833;DHT22;43667;53.036;6.740;2022-07-12T10:13:15;26.30;94.70
57833;DHT22;43667;53.036;6.740;2022-07-12T10:15:41;26.30;97.10
57833;DHT22;43667;53.036;6.740;2022-07-12T10:18:09;26.40;95.90
57833;DHT22;43667;53.036;6.740;2022-07-12T10:20:43;26.60;98.60
57833;DHT22;43667;53.036;6.740;2022-07-12T10:23:26;26.90;95.70
57833;DHT22;43667;53.036;6.740;2022-07-12T10:25:52;27.10;87.30
57833;DHT22;43667;53.036;6.740;2022-07-12T10:28:18;27.30;92.40
57833;DHT22;43667;53.036;6.740;2022-07-12T10:30:45;27.30;88.40
57833;DHT22;43667;53.036;6.740;2022-07-12T10:33:14;27.20;90.60
57833;DHT22;43667;53.036;6.740;2022-07-12T10:35:40;27.20;89.70
57833;DHT22;43667;53.036;6.740;2022-07-12T10:38:22;27.00;90.60
57833;DHT22;43667;53.036;6.740;2022-07-12T10:40:48;26.80;93.00
57833;DHT22;43667;53.036;6.740;2022-07-12T10:43:15;26.70;93.40
57833;DHT22;43667;53.036;6.740;2022-07-12T10:45:42;26.70;92.10
57833;DHT22;43667;53.036;6.740;2022-07-12T10:48:08;26.90;93.10
57833;DHT22;43667;53.036;6.740;2022-07-12T10:58:35;27.50;90.30
57833;DHT22;43667;53.036;6.740;2022-07-12T11:01:08;27.70;88.10
57833;DHT22;43667;53.036;6.740;2022-07-12T11:03:41;27.90;88.50
57833;DHT22;43667;53.036;6.740;2022-07-12T11:06:08;27.90;84.50
57833;DHT22;43667;53.036;6.740;2022-07-12T11:08:53;28.00;89.10
57833;DHT22;43667;53.036;6.740;2022-07-12T11:11:19;27.90;78.80
57833;DHT22;43667;53.036;6.740;2022-07-12T11:13:45;27.90;80.20
57833;DHT22;43667;53.036;6.740;2022-07-12T11:16:11;27.90;77.00
57833;DHT22;43667;53.036;6.740;2022-07-12T11:18:37;27.90;75.40
57833;DHT22;43667;53.036;6.740;2022-07-12T11:21:02;28.10;88.30
57833;DHT22;43667;53.036;6.740;2022-07-12T11:23:28;28.10;79.00
57833;DHT22;43667;53.036;6.740;2022-07-12T11:25:54;28.20;76.60
57833;DHT22;43667;53.036;6.740;2022-07-12T11:28:21;28.20;75.40
57833;DHT22;43667;53.036;6.740;2022-07-12T11:30:47;28.40;74.20
57833;DHT22;43667;53.036;6.740;2022-07-12T11:33:13;28.50;73.90
57833;DHT22;43667;53.036;6.740;2022-07-12T11:35:38;28.50;75.00
57833;DHT22;43667;53.036;6.740;2022-07-12T11:38:04;28.60;70.90
57833;DHT22;43667;53.036;6.740;2022-07-12T11:40:30;28.70;69.40
57833;DHT22;43667;53.036;6.740;2022-07-12T11:42:56;28.60;67.50
57833;DHT22;43667;53.036;6.740;2022-07-12T11:45:24;28.70;71.60
57833;DHT22;43667;53.036;6.740;2022-07-12T11:47:52;28.50;71.50
57833;DHT22;43667;53.036;6.740;2022-07-12T11:50:18;28.40;74.70
57833;DHT22;43667;53.036;6.740;2022-07-12T11:52:44;28.40;73.70
57833;DHT22;43667;53.036;6.740;2022-07-12T11:55:09;28.40;78.10
57833;DHT22;43667;53.036;6.740;2022-07-12T11:57:35;28.40;75.50
57833;DHT22;43667;53.036;6.740;2022-07-12T12:00:16;28.40;71.00
57833;DHT22;43667;53.036;6.740;2022-07-12T12:02:43;28.40;71.40
57833;DHT22;43667;53.036;6.740;2022-07-12T12:05:08;28.50;75.20
57833;DHT22;43667;53.036;6.740;2022-07-12T12:07:34;28.70;79.10
57833;DHT22;43667;53.036;6.740;2022-07-12T12:10:12;28.80;73.30
57833;DHT22;43667;53.036;6.740;2022-07-12T12:12:41;29.00;72.60
57833;DHT22;43667;53.036;6.740;2022-07-12T12:15:07;29.00;65.40
57833;DHT22;43667;53.036;6.740;2022-07-12T12:17:34;29.10;66.50
57833;DHT22;43667;53.036;6.740;2022-07-12T12:20:16;29.10;69.50
57833;DHT22;43667;53.036;6.740;2022-07-12T12:22:42;29.30;73.20
57833;DHT22;43667;53.036;6.740;2022-07-12T12:25:08;29.30;64.70
57833;DHT22;43667;53.036;6.740;2022-07-12T12:27:45;29.30;65.10
57833;DHT22;43667;53.036;6.740;2022-07-12T12:30:11;29.20;64.50
57833;DHT22;43667;53.036;6.740;2022-07-12T12:32:44;29.30;64.80
57833;DHT22;43667;53.036;6.740;2022-07-12T12:35:10;29.20;63.40
57833;DHT22;43667;53.036;6.740;2022-07-12T12:37:36;29.20;69.80
57833;DHT22;43667;53.036;6.740;2022-07-12T12:40:02;29.20;66.00
57833;DHT22;43667;53.036;6.740;2022-07-12T12:42:28;29.10;68.50
57833;DHT22;43667;53.036;6.740;2022-07-12T12:44:53;29.10;71.30
57833;DHT22;43667;53.036;6.740;2022-07-12T12:47:19;29.10;62.80
57833;DHT22;43667;53.036;6.740;2022-07-12T12:49:56;29.20;62.40
57833;DHT22;43667;53.036;6.740;2022-07-12T12:52:26;29.30;61.10
57833;DHT22;43667;53.036;6.740;2022-07-12T12:54:52;29.40;57.00
57833;DHT22;43667;53.036;6.740;2022-07-12T12:57:17;29.50;53.30
57833;DHT22;43667;53.036;6.740;2022-07-12T12:59:43;29.50;51.00
57833;DHT22;43667;53.036;6.740;2022-07-12T13:02:08;29.40;52.10
57833;DHT22;43667;53.036;6.740;2022-07-12T13:04:35;29.30;52.70
57833;DHT22;43667;53.036;6.740;2022-07-12T13:07:01;29.40;53.90
57833;DHT22;43667;53.036;6.740;2022-07-12T13:09:27;29.50;54.40
57833;DHT22;43667;53.036;6.740;2022-07-12T13:11:54;29.60;57.00
57833;DHT22;43667;53.036;6.740;2022-07-12T13:14:19;29.80;52.00
57833;DHT22;43667;53.036;6.740;2022-07-12T13:16:45;29.80;51.00
57833;DHT22;43667;53.036;6.740;2022-07-12T13:19:10;29.80;50.20
57833;DHT22;43667;53.036;6.740;2022-07-12T13:21:36;29.70;49.10
57833;DHT22;43667;53.036;6.740;2022-07-12T13:24:01;29.70;53.00
57833;DHT22;43667;53.036;6.740;2022-07-12T13:26:27;29.90;50.50
57833;DHT22;43667;53.036;6.740;2022-07-12T13:28:53;30.10;51.60
57833;DHT22;43667;53.036;6.740;2022-07-12T13:31:18;30.20;49.90
57833;DHT22;43667;53.036;6.740;2022-07-12T13:33:44;30.20;49.80
57833;DHT22;43667;53.036;6.740;2022-07-12T13:36:09;30.10;50.90
57833;DHT22;43667;53.036;6.740;2022-07-12T13:38:35;30.00;49.60
57833;DHT22;43667;53.036;6.740;2022-07-12T13:41:00;29.90;50.80
57833;DHT22;43667;53.036;6.740;2022-07-12T13:43:26;29.90;51.80
57833;DHT22;43667;53.036;6.740;2022-07-12T13:45:51;30.00;53.70
57833;DHT22;43667;53.036;6.740;2022-07-12T13:48:17;30.00;52.30
57833;DHT22;43667;53.036;6.740;2022-07-12T13:50:44;30.00;51.20
57833;DHT22;43667;53.036;6.740;2022-07-12T13:53:09;29.80;53.30
57833;DHT22;43667;53.036;6.740;2022-07-12T13:55:35;29.70;53.60
57833;DHT22;43667;53.036;6.740;2022-07-12T13:58:02;29.60;52.20
57833;DHT22;43667;53.036;6.740;2022-07-12T14:00:28;29.50;53.90
57833;DHT22;43667;53.036;6.740;2022-07-12T14:02:53;29.40;52.80
57833;DHT22;43667;53.036;6.740;2022-07-12T14:05:19;29.30;54.10
57833;DHT22;43667;53.036;6.740;2022-07-12T14:07:45;29.30;52.50
57833;DHT22;43667;53.036;6.740;2022-07-12T14:10:11;29.20;52.50
57833;DHT22;43667;53.036;6.740;2022-07-12T14:12:40;29.10;52.10
57833;DHT22;43667;53.036;6.740;2022-07-12T14:15:05;29.10;51.90
57833;DHT22;43667;53.036;6.740;2022-07-12T14:17:47;29.20;53.40
57833;DHT22;43667;53.036;6.740;2022-07-12T14:20:14;29.30;53.20
57833;DHT22;43667;53.036;6.740;2022-07-12T14:22:40;29.30;52.90
57833;DHT22;43667;53.036;6.740;2022-07-12T14:25:06;29.40;53.00
57833;DHT22;43667;53.036;6.740;2022-07-12T14:27:36;29.40;55.50
57833;DHT22;43667;53.036;6.740;2022-07-12T14:30:02;29.30;53.50
57833;DHT22;43667;53.036;6.740;2022-07-12T14:32:28;29.30;54.40
57833;DHT22;43667;53.036;6.740;2022-07-12T14:34:54;29.20;53.40
57833;DHT22;43667;53.036;6.740;2022-07-12T14:37:19;29.10;52.30
57833;DHT22;43667;53.036;6.740;2022-07-12T14:39:45;29.00;53.10
57833;DHT22;43667;53.036;6.740;2022-07-12T14:42:10;28.90;54.90
57833;DHT22;43667;53.036;6.740;2022-07-12T14:44:36;28.90;54.70
57833;DHT22;43667;53.036;6.740;2022-07-12T14:47:01;29.00;55.00
57833;DHT22;43667;53.036;6.740;2022-07-12T14:49:27;29.00;54.30
57833;DHT22;43667;53.036;6.740;2022-07-12T14:51:53;29.00;55.30
57833;DHT22;43667;53.036;6.740;2022-07-12T14:54:19;29.00;54.40
57833;DHT22;43667;53.036;6.740;2022-07-12T14:56:45;29.00;53.90
57833;DHT22;43667;53.036;6.740;2022-07-12T14:59:10;29.00;56.20
57833;DHT22;43667;53.036;6.740;2022-07-12T15:01:36;29.00;55.90
57833;DHT22;43667;53.036;6.740;2022-07-12T15:04:02;29.00;56.50
57833;DHT22;43667;53.036;6.740;2022-07-12T15:06:27;29.10;55.00
57833;DHT22;43667;53.036;6.740;2022-07-12T15:08:53;28.90;56.80
57833;DHT22;43667;53.036;6.740;2022-07-12T15:11:19;28.90;54.50
57833;DHT22;43667;53.036;6.740;2022-07-12T15:13:44;28.80;54.60
57833;DHT22;43667;53.036;6.740;2022-07-12T15:16:10;28.70;53.10
57833;DHT22;43667;53.036;6.740;2022-07-12T15:18:35;28.60;56.20
57833;DHT22;43667;53.036;6.740;2022-07-12T15:21:02;28.50;54.70
57833;DHT22;43667;53.036;6.740;2022-07-12T15:23:28;28.40;55.00
57833;DHT22;43667;53.036;6.740;2022-07-12T15:25:56;28.30;55.80
57833;DHT22;43667;53.036;6.740;2022-07-12T15:28:22;28.20;54.50
57833;DHT22;43667;53.036;6.740;2022-07-12T15:30:50;28.20;55.70
57833;DHT22;43667;53.036;6.740;2022-07-12T15:33:15;28.10;58.60
57833;DHT22;43667;53.036;6.740;2022-07-12T15:35:41;28.00;58.70
57833;DHT22;43667;53.036;6.740;2022-07-12T15:38:06;28.10;55.80
57833;DHT22;43667;53.036;6.740;2022-07-12T15:40:34;28.00;56.20